Time;durP1;ratioP1;P1;durP2;ratioP2;P2;SDS_P1;SDS_P2;PMS_P1;PMS_P2;Temp;Humidity;BMP_temperature;BMP_pressure;BME280_temperature;BME280_humidity;BME280_pressure;Samples;Min_cycle;Max_cycle;Signal;HPM_P1;HPM_P2
2021/05/19 00:01:35;;;;;;;5.65;1.30;;;;;;;23.45;43.58;99220.00;4483293;32;33488;-60
2021/05/19 00:04:03;;;;;;;7.93;1.73;;;;;;;23.47;43.34;99220.59;4483132;32;34604;-61
2021/05/19 00:06:31;;;;;;;9.35;1.60;;;;;;;23.47;43.36;99217.88;4483396;32;33731;-61
2021/05/19 00:08:58;;;;;;;7.28;1.27;;;;;;;23.48;43.36;99214.06;4483391;32;33017;-61
2021/05/19 00:11:26;;;;;;;13.23;1.92;;;;;;;23.47;43.53;99210.53;4483223;32;33826;-61
2021/05/19 00:13:54;;;;;;;5.00;1.48;;;;;;;23.46;43.58;99203.44;4483190;32;35002;-60
2021/05/19 00:16:21;;;;;;;6.43;1.40;;;;;;;23.46;43.60;99210.78;4483186;32;33385;-60
2021/05/19 00:18:49;;;;;;;3.58;1.52;;;;;;;23.46;43.57;99203.44;4483116;32;34345;-60
2021/05/19 00:21:17;;;;;;;3.85;1.30;;;;;;;23.46;43.55;99205.31;4483203;32;34446;-60
2021/05/19 00:23:44;;;;;;;5.22;1.37;;;;;;;23.46;43.58;99197.16;4483095;32;34047;-60
2021/05/19 00:26:12;;;;;;;3.72;1.12;;;;;;;23.45;43.60;99188.13;4482980;32;34154;-61
2021/05/19 00:28:42;;;;;;;5.70;1.40;;;;;;;23.45;43.58;99188.13;4483192;32;34911;-61
2021/05/19 00:31:09;;;;;;;8.40;1.85;;;;;;;23.45;43.43;99193.59;4483022;32;33796;-61
2021/05/19 00:33:37;;;;;;;12.50;2.15;;;;;;;23.46;43.53;99189.81;4482242;32;33789;-61
2021/05/19 00:36:11;;;;;;;7.57;1.60;;;;;;;23.45;43.59;99196.31;4483426;32;33453;-60
2021/05/19 00:38:38;;;;;;;7.37;1.60;;;;;;;23.45;43.56;99185.41;4484436;32;33904;-60
2021/05/19 00:41:07;;;;;;;9.57;1.45;;;;;;;23.42;43.59;99194.91;4484762;32;35333;-60
2021/05/19 00:43:35;;;;;;;7.05;1.48;;;;;;;23.42;43.58;99197.62;4484851;32;33587;-61
2021/05/19 00:46:05;;;;;;;9.77;1.73;;;;;;;23.43;43.57;99202.00;4484689;32;34159;-60
2021/05/19 00:48:34;;;;;;;6.72;1.30;;;;;;;23.43;43.54;99203.91;4485095;32;33504;-61
2021/05/19 00:51:05;;;;;;;5.43;1.45;;;;;;;23.43;43.58;99210.16;4484895;32;33810;-61
2021/05/19 00:53:34;;;;;;;5.65;1.62;;;;;;;23.42;43.64;99205.81;4484872;32;33736;-60
2021/05/19 00:56:01;;;;;;;3.05;1.00;;;;;;;23.43;43.69;99206.63;4484621;32;33330;-61
2021/05/19 00:58:29;;;;;;;5.97;1.58;;;;;;;23.42;43.71;99196.81;4485014;32;33743;-60
2021/05/19 01:00:57;;;;;;;3.75;1.30;;;;;;;23.42;43.65;99203.06;4483364;32;34886;-61
2021/05/19 01:03:26;;;;;;;6.70;1.50;;;;;;;23.42;43.73;99207.69;4485003;31;34599;-60
2021/05/19 01:05:59;;;;;;;3.58;1.12;;;;;;;23.42;43.78;99210.41;4484765;32;33665;-61
2021/05/19 01:11:14;;;;;;;6.57;1.30;;;;;;;23.42;43.67;99216.69;4484839;32;33859;-59
2021/05/19 01:13:44;;;;;;;5.15;1.27;;;;;;;23.43;43.59;99212.06;4484101;32;33791;-60
2021/05/19 01:16:13;;;;;;;5.73;1.50;;;;;;;23.41;43.71;99216.94;4484683;32;33477;-60
2021/05/19 01:18:41;;;;;;;4.03;1.17;;;;;;;23.42;43.72;99208.53;4484549;32;33647;-60
2021/05/19 01:21:09;;;;;;;3.78;1.20;;;;;;;23.42;43.69;99211.25;4484635;32;34170;-60
2021/05/19 01:23:38;;;;;;;3.60;1.20;;;;;;;23.41;43.70;99208.78;4484823;32;34549;-61
2021/05/19 01:26:07;;;;;;;4.28;1.30;;;;;;;23.42;43.70;99208.53;4484464;32;33901;-61
2021/05/19 01:28:35;;;;;;;5.22;1.23;;;;;;;23.41;43.68;99206.88;4484579;32;34038;-61
2021/05/19 01:31:03;;;;;;;3.53;1.20;;;;;;;23.42;43.74;99208.53;4484323;32;33853;-60
2021/05/19 01:33:31;;;;;;;5.57;1.40;;;;;;;23.42;43.66;99197.62;4484597;32;34773;-61
2021/05/19 01:35:59;;;;;;;3.08;1.10;;;;;;;23.41;43.59;99206.88;4484768;32;33476;-61
2021/05/19 01:38:27;;;;;;;6.28;1.20;;;;;;;23.40;43.58;99202.47;4484195;32;35062;-61
2021/05/19 01:40:55;;;;;;;6.68;1.50;;;;;;;23.40;43.58;99198.94;4484477;32;36020;-61
2021/05/19 01:43:32;;;;;;;3.42;1.10;;;;;;;23.40;43.58;99204.38;4484356;32;34520;-61
2021/05/19 01:46:01;;;;;;;5.15;1.37;;;;;;;23.41;43.55;99211.50;4484544;32;33315;-61
2021/05/19 01:48:30;;;;;;;3.60;1.15;;;;;;;23.39;43.50;99206.28;4484197;32;34568;-60
2021/05/19 01:50:57;;;;;;;6.03;1.20;;;;;;;23.40;43.48;99205.19;4484482;32;34772;-61
2021/05/19 01:53:28;;;;;;;6.45;1.10;;;;;;;23.41;43.63;99203.31;4484390;32;34798;-61
2021/05/19 01:55:56;;;;;;;2.92;1.17;;;;;;;23.40;43.69;99213.38;4484393;32;33412;-60
2021/05/19 01:58:25;;;;;;;3.55;1.15;;;;;;;23.41;43.68;99208.78;4484668;32;33618;-61
2021/05/19 02:00:53;;;;;;;5.43;1.33;;;;;;;23.40;43.72;99202.47;4470101;32;34291;-60
2021/05/19 02:03:22;;;;;;;3.03;1.10;;;;;;;23.40;43.80;99207.09;4483230;32;34081;-60
2021/05/19 02:05:51;;;;;;;6.82;1.40;;;;;;;23.39;43.69;99203.53;4484542;32;34566;-60
2021/05/19 02:08:20;;;;;;;5.30;1.30;;;;;;;23.39;43.69;99209.00;4484336;32;33616;-61
2021/05/19 02:10:48;;;;;;;4.28;1.10;;;;;;;23.40;43.69;99207.09;4484480;32;33865;-61
2021/05/19 02:13:17;;;;;;;3.05;0.80;;;;;;;23.40;43.80;99209.81;4484358;32;33281;-60
2021/05/19 02:15:45;;;;;;;4.43;1.27;;;;;;;23.39;43.70;99214.44;4483770;32;33027;-60
2021/05/19 02:18:14;;;;;;;5.47;1.20;;;;;;;23.40;43.70;99217.97;4484094;32;34876;-60
2021/05/19 02:20:42;;;;;;;3.92;1.20;;;;;;;23.38;43.67;99204.62;4484496;32;33529;-60
2021/05/19 02:23:10;;;;;;;5.45;1.67;;;;;;;23.37;43.65;99202.97;4484050;32;33753;-60
2021/05/19 02:25:38;;;;;;;3.47;1.00;;;;;;;23.38;43.77;99214.69;4484299;32;34712;-60
2021/05/19 02:28:06;;;;;;;3.28;1.00;;;;;;;23.38;43.69;99203.81;4484147;32;33450;-60
2021/05/19 02:30:35;;;;;;;5.00;1.00;;;;;;;23.38;43.69;99201.91;4484382;32;33756;-60
2021/05/19 02:33:09;;;;;;;4.80;1.70;;;;;;;23.37;43.67;99200.25;4484244;32;34380;-60
2021/05/19 02:35:36;;;;;;;5.22;1.10;;;;;;;23.39;43.64;99197.28;4467415;32;32927;-60
2021/05/19 02:38:05;;;;;;;2.72;1.10;;;;;;;23.38;43.60;99195.63;4468587;32;33613;-60
2021/05/19 02:40:32;;;;;;;5.00;1.20;;;;;;;23.36;43.64;99193.16;4468542;32;34035;-60
2021/05/19 02:43:00;;;;;;;8.02;1.02;;;;;;;23.37;43.65;99189.38;4468334;32;33835;-61
2021/05/19 02:45:28;;;;;;;4.00;1.23;;;;;;;23.37;43.74;99194.81;4468769;32;32835;-61
2021/05/19 02:47:55;;;;;;;6.87;1.05;;;;;;;23.38;43.58;99199.19;4468339;32;33779;-60
2021/05/19 02:53:09;;;;;;;5.50;1.15;;;;;;;23.38;43.93;99198.34;4468389;32;34490;-61
2021/05/19 02:55:37;;;;;;;2.92;0.85;;;;;;;23.37;43.77;99193.97;4468223;32;33579;-61
2021/05/19 02:58:04;;;;;;;5.05;1.23;;;;;;;23.36;43.78;99198.59;4468178;32;34739;-60
2021/05/19 03:00:32;;;;;;;6.20;1.10;;;;;;;23.37;43.80;99199.44;4467140;32;33817;-60
2021/05/19 03:03:00;;;;;;;3.83;1.00;;;;;;;23.36;43.81;99195.88;4468075;32;33865;-60
2021/05/19 03:05:29;;;;;;;6.45;1.08;;;;;;;23.35;43.82;99194.19;4468551;32;33471;-61
2021/05/19 03:07:57;;;;;;;4.55;1.42;;;;;;;23.36;43.88;99200.47;4468281;32;33838;-60
2021/05/19 03:10:24;;;;;;;4.65;1.17;;;;;;;23.37;43.81;99202.16;4472106;32;34892;-61
2021/05/19 03:12:53;;;;;;;4.85;1.10;;;;;;;23.35;43.84;99194.19;4482161;32;34474;-61
2021/05/19 03:15:20;;;;;;;3.92;0.93;;;;;;;23.36;43.80;99203.19;4483608;32;33242;-61
2021/05/19 03:17:48;;;;;;;11.18;1.40;;;;;;;23.35;43.84;99199.66;4483481;32;33753;-60
2021/05/19 03:20:16;;;;;;;3.08;1.00;;;;;;;23.36;43.80;99200.47;4483807;32;34510;-61
2021/05/19 03:22:44;;;;;;;3.37;1.10;;;;;;;23.36;43.74;99208.63;4483255;32;34109;-59
2021/05/19 03:25:12;;;;;;;3.30;0.93;;;;;;;23.35;43.85;99217.88;4483483;32;34471;-61
2021/05/19 03:27:39;;;;;;;4.97;1.27;;;;;;;23.35;43.82;99215.97;4483880;32;33561;-60
2021/05/19 03:30:10;;;;;;;3.35;0.95;;;;;;;23.35;43.77;99212.44;4483846;32;33501;-60
2021/05/19 03:32:38;;;;;;;4.22;0.82;;;;;;;23.34;43.71;99208.06;4483513;32;33754;-60
2021/05/19 03:35:07;;;;;;;4.10;1.20;;;;;;;23.35;43.71;99207.00;4483953;32;34315;-60
2021/05/19 03:37:34;;;;;;;1.73;0.80;;;;;;;23.36;43.68;99214.09;4481692;32;34095;-60
2021/05/19 03:40:03;;;;;;;8.40;1.30;;;;;;;23.34;43.72;99218.97;4483670;32;33844;-60
2021/05/19 03:42:31;;;;;;;2.65;1.02;;;;;;;23.34;43.78;99218.97;4483343;32;33974;-60
2021/05/19 03:44:59;;;;;;;3.12;1.12;;;;;;;23.34;43.73;99221.69;4483437;32;34046;-60
2021/05/19 03:47:26;;;;;;;3.25;1.02;;;;;;;23.33;43.68;99220.84;4483474;32;34649;-60
2021/05/19 03:49:54;;;;;;;2.70;1.17;;;;;;;23.35;43.53;99224.16;4483569;32;33741;-60
2021/05/19 03:52:21;;;;;;;3.85;1.05;;;;;;;23.33;43.70;99215.41;4483475;32;34800;-60
2021/05/19 03:54:50;;;;;;;5.03;1.00;;;;;;;23.34;43.76;99218.97;4469491;32;33292;-60
2021/05/19 03:57:18;;;;;;;3.60;1.17;;;;;;;23.35;43.73;99220.59;4483505;32;34512;-60
2021/05/19 03:59:45;;;;;;;4.07;1.12;;;;;;;23.34;43.68;99218.97;4483669;32;33931;-60
2021/05/19 04:02:13;;;;;;;4.32;1.10;;;;;;;23.33;43.74;99215.41;4483509;32;34509;-60
2021/05/19 04:04:41;;;;;;;3.22;1.17;;;;;;;23.35;43.73;99223.31;4483409;31;33086;-60
2021/05/19 04:07:10;;;;;;;2.33;1.10;;;;;;;23.33;43.75;99222.75;4483171;32;33557;-61
2021/05/19 04:09:38;;;;;;;2.70;0.70;;;;;;;23.33;43.81;99223.56;4483291;32;33931;-59
2021/05/19 04:12:06;;;;;;;3.28;1.20;;;;;;;23.35;43.84;99218.72;4482964;32;34910;-61
2021/05/19 04:14:33;;;;;;;2.92;0.93;;;;;;;23.34;43.95;99217.06;4483129;32;33832;-61
2021/05/19 04:17:01;;;;;;;4.05;1.20;;;;;;;23.35;43.91;99223.31;4483161;32;33758;-60
2021/05/19 04:19:29;;;;;;;3.17;0.77;;;;;;;23.34;43.85;99224.41;4481883;32;34919;-60
2021/05/19 04:21:56;;;;;;;4.05;0.80;;;;;;;23.36;43.74;99219.53;4483041;32;34303;-59
2021/05/19 04:24:23;;;;;;;2.83;0.80;;;;;;;23.35;43.68;99224.16;4483341;32;33500;-60
2021/05/19 04:26:51;;;;;;;3.95;1.05;;;;;;;23.37;43.64;99226.66;4483109;32;33931;-61
2021/05/19 04:29:19;;;;;;;2.65;0.90;;;;;;;23.36;43.68;99230.41;4481857;32;34783;-61
2021/05/19 04:31:47;;;;;;;8.18;1.25;;;;;;;23.36;43.95;99222.25;4482955;32;34141;-57
2021/05/19 04:34:14;;;;;;;13.05;1.25;;;;;;;23.36;44.15;99220.38;4482997;32;33756;-60
2021/05/19 04:36:42;;;;;;;13.50;1.40;;;;;;;23.36;44.25;99223.09;4482762;32;35021;-58
2021/05/19 04:39:09;;;;;;;11.80;1.48;;;;;;;23.37;44.17;99226.66;4482895;32;34685;-59
2021/05/19 04:41:37;;;;;;;23.58;1.90;;;;;;;23.38;44.06;99223.69;4483022;32;33655;-57
2021/05/19 04:44:05;;;;;;;11.10;1.87;;;;;;;23.37;44.21;99224.75;4482706;32;34185;-60
2021/05/19 04:46:32;;;;;;;10.55;1.58;;;;;;;23.37;44.22;99227.47;4483276;32;34257;-60
2021/05/19 04:49:00;;;;;;;10.55;1.80;;;;;;;23.37;44.16;99226.66;4482625;32;33744;-60
2021/05/19 04:51:28;;;;;;;12.98;1.67;;;;;;;23.35;44.09;99224.16;4482627;32;33899;-58
2021/05/19 04:53:55;;;;;;;16.10;1.90;;;;;;;23.35;44.05;99224.16;4482775;32;34049;-59
2021/05/19 04:56:23;;;;;;;10.23;1.10;;;;;;;23.35;44.02;99218.72;4482645;32;33805;-59
2021/05/19 04:58:51;;;;;;;4.87;1.20;;;;;;;23.35;44.01;99220.59;4482411;32;33963;-61
2021/05/19 05:01:18;;;;;;;11.40;1.42;;;;;;;23.34;43.95;99216.22;4482670;32;33740;-59
2021/05/19 05:03:46;;;;;;;7.53;1.35;;;;;;;23.34;43.93;99214.34;4474151;32;33283;-58
2021/05/19 05:06:13;;;;;;;5.15;1.40;;;;;;;23.34;43.91;99214.34;4473753;32;34741;-59
2021/05/19 05:08:45;;;;;;;9.63;1.27;;;;;;;23.33;43.86;99226.28;4469397;32;34297;-59
2021/05/19 05:11:14;;;;;;;10.05;1.40;;;;;;;23.33;43.81;99225.47;4466763;32;33805;-57
2021/05/19 05:13:42;;;;;;;9.20;1.62;;;;;;;23.32;43.80;99221.94;4481452;32;34080;-55
2021/05/19 05:16:10;;;;;;;7.85;1.17;;;;;;;23.32;43.74;99224.66;4482220;32;34190;-57
2021/05/19 05:18:38;;;;;;;8.48;1.80;;;;;;;23.32;43.71;99227.38;4470300;32;33988;-59
2021/05/19 05:21:06;;;;;;;5.30;1.20;;;;;;;23.31;43.71;99228.41;4466406;32;33958;-58
2021/05/19 05:23:34;;;;;;;5.53;1.05;;;;;;;23.31;43.67;99228.41;4467569;32;33527;-57
2021/05/19 05:26:02;;;;;;;7.85;1.70;;;;;;;23.30;43.64;99231.37;4468773;32;33843;-59
2021/05/19 05:28:30;;;;;;;7.53;1.40;;;;;;;23.30;43.65;99239.56;4468805;32;33658;-59
2021/05/19 05:30:57;;;;;;;6.65;1.65;;;;;;;23.31;43.63;99238.47;4468709;32;33884;-59
2021/05/19 05:33:26;;;;;;;7.03;1.40;;;;;;;23.29;43.58;99238.72;4468544;32;33388;-58
2021/05/19 05:35:54;;;;;;;6.10;1.25;;;;;;;23.28;43.57;99234.34;4468616;32;34539;-58
2021/05/19 05:38:21;;;;;;;3.80;1.12;;;;;;;23.28;43.54;99234.34;4468539;32;34631;-59
2021/05/19 05:40:49;;;;;;;5.72;1.35;;;;;;;23.27;43.54;99238.16;4468377;32;34695;-58
2021/05/19 05:43:16;;;;;;;4.05;0.98;;;;;;;23.28;43.51;99239.81;4468540;32;33317;-59
2021/05/19 05:45:44;;;;;;;6.20;1.08;;;;;;;23.27;43.51;99232.72;4468659;32;34571;-59
2021/05/19 05:48:12;;;;;;;6.45;1.23;;;;;;;23.26;43.48;99236.47;4468363;32;33852;-57
2021/05/19 05:50:40;;;;;;;4.57;1.17;;;;;;;23.27;43.47;99238.16;4468579;32;33528;-57
2021/05/19 05:53:07;;;;;;;4.03;0.93;;;;;;;23.28;43.43;99241.69;4468462;32;33295;-58
2021/05/19 05:55:35;;;;;;;5.70;1.40;;;;;;;23.26;43.41;99233.75;4470627;32;34599;-59
2021/05/19 05:58:03;;;;;;;6.30;1.05;;;;;;;23.26;43.41;99238.37;4468761;32;34095;-58
2021/05/19 06:00:30;;;;;;;4.55;1.05;;;;;;;23.26;43.40;99241.91;4471240;32;34270;-57
2021/05/19 06:02:58;;;;;;;6.28;1.10;;;;;;;23.25;43.36;99243.00;4484167;32;33223;-59
2021/05/19 06:05:27;;;;;;;6.65;1.00;;;;;;;23.25;43.36;99243.00;4484584;32;34975;-58
2021/05/19 06:07:55;;;;;;;4.65;1.12;;;;;;;23.25;43.34;99243.00;4484395;32;34713;-58
2021/05/19 06:10:22;;;;;;;3.40;0.93;;;;;;;23.24;43.34;99243.25;4484058;32;34603;-56
2021/05/19 06:12:50;;;;;;;3.70;1.23;;;;;;;23.25;43.34;99250.31;4484298;32;33245;-58
2021/05/19 06:15:17;;;;;;;5.57;1.52;;;;;;;23.24;43.33;99246.78;4484309;32;33722;-58
2021/05/19 06:17:46;;;;;;;6.57;1.40;;;;;;;23.24;43.31;99248.69;4479007;32;33847;-58
2021/05/19 06:20:14;;;;;;;3.05;0.90;;;;;;;23.24;43.30;99248.69;4468614;32;34224;-58
2021/05/19 06:22:42;;;;;;;2.60;1.00;;;;;;;23.23;43.27;99239.69;4468549;32;33168;-59
2021/05/19 06:25:10;;;;;;;5.15;1.70;;;;;;;23.23;43.27;99231.53;4468395;32;33837;-59
2021/05/19 06:27:38;;;;;;;3.50;0.90;;;;;;;23.23;43.24;99236.16;4468447;32;34729;-58
2021/05/19 06:30:06;;;;;;;6.07;1.40;;;;;;;23.23;43.23;99230.69;4480349;32;33752;-59
2021/05/19 06:32:34;;;;;;;3.17;1.02;;;;;;;23.22;43.22;99226.31;4484125;32;33401;-59
2021/05/19 06:35:02;;;;;;;3.55;0.90;;;;;;;23.23;43.21;99230.69;4483889;32;34818;-58
2021/05/19 06:37:30;;;;;;;4.43;1.10;;;;;;;23.23;43.20;99227.97;4483844;32;34043;-59
2021/05/19 06:39:59;;;;;;;6.43;0.80;;;;;;;23.22;43.17;99229.84;4484004;32;34395;-60
2021/05/19 06:42:27;;;;;;;2.87;0.88;;;;;;;23.23;43.14;99223.37;4483999;32;33338;-59
2021/05/19 06:44:54;;;;;;;2.87;0.90;;;;;;;23.23;43.13;99228.81;4481811;32;34755;-59
2021/05/19 06:47:22;;;;;;;3.47;0.80;;;;;;;23.23;43.11;99236.97;4475157;32;33680;-58
2021/05/19 06:49:52;;;;;;;3.83;1.00;;;;;;;23.24;43.10;99226.91;4477774;32;33880;-59
2021/05/19 06:52:19;;;;;;;2.75;0.90;;;;;;;23.23;43.09;99236.16;4483769;32;33167;-55
2021/05/19 06:54:48;;;;;;;4.12;0.75;;;;;;;23.23;43.04;99228.81;4484125;32;33719;-58
2021/05/19 06:57:20;;;;;;;3.15;1.20;;;;;;;23.24;43.03;99226.91;4484072;32;35079;-59
2021/05/19 06:59:51;;;;;;;4.57;1.20;;;;;;;23.24;43.01;99227.72;4483656;32;34067;-59
2021/05/19 07:02:18;;;;;;;3.15;0.80;;;;;;;23.24;43.01;99221.47;4483072;32;33185;-59
2021/05/19 07:04:47;;;;;;;2.33;0.93;;;;;;;23.24;42.99;99222.28;4468186;32;34298;-59
2021/05/19 07:07:15;;;;;;;6.62;1.23;;;;;;;23.24;42.99;99213.31;4468055;32;34760;-59
2021/05/19 07:09:43;;;;;;;2.67;0.55;;;;;;;23.23;42.98;99215.19;4468171;32;34140;-58
2021/05/19 07:12:12;;;;;;;2.87;0.93;;;;;;;23.23;42.97;99209.75;4468119;32;33459;-58
2021/05/19 07:14:47;;;;;;;4.60;1.00;;;;;;;23.23;42.96;99209.75;4467924;32;33751;-59
2021/05/19 07:17:15;;;;;;;3.62;1.30;;;;;;;23.24;42.95;99216.03;4468162;32;34958;-59
2021/05/19 07:19:42;;;;;;;4.55;1.00;;;;;;;23.23;42.93;99220.62;4468139;32;33060;-58
2021/05/19 07:22:10;;;;;;;6.07;1.35;;;;;;;23.24;42.94;99224.19;4468107;32;33365;-59
2021/05/19 07:24:38;;;;;;;2.20;0.88;;;;;;;23.24;42.92;99221.47;4467976;32;33474;-58
2021/05/19 07:27:07;;;;;;;2.65;0.90;;;;;;;23.24;42.91;99218.75;4467879;32;34101;-59
2021/05/19 07:29:34;;;;;;;3.33;0.77;;;;;;;23.24;42.89;99213.31;4468058;32;33797;-57
2021/05/19 07:32:02;;;;;;;5.10;0.98;;;;;;;23.24;42.89;99205.12;4468084;32;33297;-56
2021/05/19 07:34:30;;;;;;;2.53;0.80;;;;;;;23.24;42.88;99207.84;4467862;32;33780;-58
2021/05/19 07:37:09;;;;;;;2.10;0.80;;;;;;;23.23;42.87;99209.75;4468067;32;34811;-60
2021/05/19 07:39:38;;;;;;;3.60;1.00;;;;;;;23.25;42.83;99209.50;4473806;32;33808;-59
2021/05/19 07:42:05;;;;;;;4.35;0.93;;;;;;;23.24;42.84;99202.41;4483857;32;33070;-58
2021/05/19 07:44:33;;;;;;;3.08;0.80;;;;;;;23.24;42.84;99199.69;4483581;32;34230;-58
2021/05/19 07:47:00;;;;;;;4.95;1.20;;;;;;;23.25;42.83;99206.78;4482831;32;33787;-56
2021/05/19 07:49:26;;;;;;;1.48;0.93;;;;;;;23.23;42.81;99200.75;4483472;32;34740;-59
2021/05/19 07:51:52;;;;;;;4.32;0.95;;;;;;;23.24;42.80;99196.97;4480798;32;32817;-59
2021/05/19 07:54:26;;;;;;;3.25;0.93;;;;;;;23.23;42.80;99198.88;4483242;32;34710;-57
2021/05/19 07:57:18;;;;;;;3.85;1.20;;;;;;;23.23;42.79;99196.16;4482890;32;34567;-58
2021/05/19 07:59:39;;;;;;;3.03;0.90;;;;;;;23.23;42.78;99193.44;4480757;32;33804;-59
2021/05/19 08:02:08;;;;;;;3.15;0.93;;;;;;;23.24;42.76;99197.78;4483693;32;32944;-59
2021/05/19 08:04:35;;;;;;;2.78;0.82;;;;;;;23.23;42.76;99198.88;4483778;32;33793;-60
2021/05/19 08:07:02;;;;;;;2.20;0.93;;;;;;;23.24;42.77;99199.69;4483540;32;34779;-58
2021/05/19 08:09:29;;;;;;;2.65;0.80;;;;;;;23.23;42.75;99187.97;4483419;32;33815;-59
2021/05/19 08:11:56;;;;;;;2.05;0.88;;;;;;;23.23;42.74;99190.69;4469688;32;34323;-58
2021/05/19 08:14:26;;;;;;;1.85;0.80;;;;;;;23.24;42.72;99186.09;4467891;32;33861;-58
2021/05/19 08:16:53;;;;;;;3.45;1.12;;;;;;;23.24;42.73;99191.53;4467939;32;34871;-58
2021/05/19 08:19:19;;;;;;;2.62;0.95;;;;;;;23.25;42.68;99188.56;4467809;32;34530;-58
2021/05/19 08:21:47;;;;;;;1.98;0.70;;;;;;;23.25;42.70;99188.56;4467916;32;33355;-59
2021/05/19 08:24:14;;;;;;;2.97;1.08;;;;;;;23.25;42.68;99187.72;4467784;32;33849;-59
2021/05/19 08:26:42;;;;;;;1.58;0.70;;;;;;;23.24;42.68;99178.75;4467845;32;33794;-58
2021/05/19 08:29:24;;;;;;;1.27;0.65;;;;;;;23.24;42.67;99177.91;4467599;32;33948;-58
2021/05/19 08:31:52;;;;;;;1.87;0.90;;;;;;;23.26;42.65;99186.66;4467635;32;33529;-57
2021/05/19 08:34:19;;;;;;;2.00;0.73;;;;;;;23.25;42.66;99182.28;4467663;32;34190;-57
2021/05/19 08:36:47;;;;;;;2.85;0.70;;;;;;;23.25;42.66;99187.72;4467520;32;34973;-56
2021/05/19 08:39:17;;;;;;;3.90;1.20;;;;;;;23.24;42.67;99189.62;4471015;32;33966;-56
2021/05/19 08:41:46;;;;;;;1.87;0.70;;;;;;;23.25;42.64;99180.38;4482982;32;33654;-59
2021/05/19 08:44:14;;;;;;;1.58;0.70;;;;;;;23.25;42.63;99176.84;4483251;32;33841;-58
2021/05/19 08:46:47;;;;;;;1.55;0.75;;;;;;;23.25;42.61;99171.41;4483242;32;34532;-59
2021/05/19 08:49:15;;;;;;;1.92;0.90;;;;;;;23.26;42.61;99171.16;4482995;32;33866;-58
2021/05/19 08:51:43;;;;;;;2.40;0.70;;;;;;;23.25;42.57;99160.50;4483148;32;33335;-58
2021/05/19 08:54:12;;;;;;;4.12;0.98;;;;;;;23.26;42.58;99171.16;4483397;32;33642;-58
2021/05/19 08:56:42;;;;;;;1.25;0.70;;;;;;;23.25;42.55;99169.50;4482771;32;33975;-58
2021/05/19 08:59:11;;;;;;;1.25;0.75;;;;;;;23.25;42.57;99165.94;4483207;32;34726;-59
2021/05/19 09:01:43;;;;;;;2.05;0.75;;;;;;;23.25;42.54;99164.06;4484996;32;34740;-58
2021/05/19 09:04:16;;;;;;;1.62;0.85;;;;;;;23.25;42.56;99166.78;4485156;32;33752;-58
2021/05/19 09:06:44;;;;;;;1.98;0.77;;;;;;;23.25;42.56;99164.06;4485057;32;34964;-59
2021/05/19 09:09:31;;;;;;;1.48;0.80;;;;;;;23.26;42.55;99154.00;4484959;32;33886;-58
2021/05/19 09:12:07;;;;;;;3.75;0.93;;;;;;;23.28;42.53;99151.88;4485075;32;33425;-58
2021/05/19 09:14:45;;;;;;;3.28;0.80;;;;;;;23.26;42.53;99156.72;4485155;32;34116;-59
2021/05/19 09:17:27;;;;;;;3.67;1.02;;;;;;;23.26;42.53;99151.28;4484973;32;34735;-59
2021/05/19 09:20:03;;;;;;;2.12;0.70;;;;;;;23.26;42.52;99148.53;4484754;32;34256;-58
2021/05/19 09:22:32;;;;;;;1.92;0.57;;;;;;;23.24;42.53;99150.69;4485041;32;34216;-59
2021/05/19 09:25:03;;;;;;;;;;;;;;;23.25;42.51;99145.00;4485192;32;33798;-59
2021/05/19 09:27:38;;;;;;;1.65;0.75;;;;;;;23.35;42.32;99150.66;4485001;32;34972;-60
2021/05/19 09:30:07;;;;;;;3.00;0.70;;;;;;;23.28;42.46;99140.97;4485021;32;33691;-59
2021/05/19 09:32:37;;;;;;;1.80;0.80;;;;;;;23.24;42.51;99146.06;4484846;32;34151;-59
2021/05/19 09:35:05;;;;;;;;;;;;;;;23.24;42.53;99142.53;4484991;32;34476;-59
2021/05/19 09:37:33;;;;;;;1.83;0.55;;;;;;;23.33;42.33;99143.81;4484460;32;34122;-58
2021/05/19 09:40:07;;;;;;;2.10;0.80;;;;;;;23.25;42.49;99145.00;4485020;32;33690;-58
2021/05/19 09:42:35;;;;;;;2.12;0.90;;;;;;;23.24;42.54;99137.09;4484729;32;33977;-59
2021/05/19 09:45:41;;;;;;;1.83;0.73;;;;;;;23.23;42.57;99141.72;4484593;32;33600;-56
2021/05/19 09:48:09;;;;;;;1.73;0.68;;;;;;;23.23;42.55;99141.72;4484532;32;34932;-58
2021/05/19 09:50:42;;;;;;;2.67;1.00;;;;;;;23.22;42.55;99147.37;4467326;32;33886;-58
2021/05/19 09:53:14;;;;;;;2.05;0.73;;;;;;;23.22;42.55;99139.22;4478113;32;34048;-59
2021/05/19 09:56:02;;;;;;;1.90;0.68;;;;;;;23.22;42.57;99136.47;4484610;32;34596;-59
2021/05/19 09:58:30;;;;;;;2.15;0.73;;;;;;;23.22;42.54;99137.31;4484687;32;34584;-57
2021/05/19 10:00:58;;;;;;;1.83;0.80;;;;;;;23.22;42.53;99133.75;4480821;32;33690;-59
2021/05/19 10:03:26;;;;;;;1.70;0.75;;;;;;;23.22;42.54;99125.59;4475047;32;33389;-59
2021/05/19 10:06:33;;;;;;;2.45;0.62;;;;;;;23.21;42.54;99123.94;4484716;32;33730;-57
2021/05/19 10:08:51;;;;;;;3.37;0.80;;;;;;;23.21;42.53;99121.22;4470046;32;33938;-59
2021/05/19 10:11:18;;;;;;;1.10;0.75;;;;;;;23.20;42.55;99125.03;4472618;32;34160;-58
2021/05/19 10:13:46;;;;;;;2.58;0.90;;;;;;;23.20;42.54;99125.03;4479712;32;33284;-59
2021/05/19 10:16:16;;;;;;;1.77;0.80;;;;;;;23.20;42.53;99127.75;4483274;32;35008;-58
2021/05/19 10:18:48;;;;;;;1.87;0.62;;;;;;;23.20;42.55;99116.84;4470366;32;33741;-58
2021/05/19 10:21:16;;;;;;;1.80;0.93;;;;;;;23.20;42.53;99120.41;4482999;32;34047;-59
2021/05/19 10:24:08;;;;;;;0.80;0.60;;;;;;;23.20;42.54;99119.59;4483381;32;33506;-59
2021/05/19 10:26:58;;;;;;;1.95;0.70;;;;;;;23.21;42.52;99115.78;4484523;32;34795;-58
2021/05/19 10:29:44;;;;;;;;;;;;;;;23.22;42.51;99112.00;4484881;32;33661;-59
2021/05/19 10:32:21;;;;;;;3.33;0.77;;;;;;;23.28;42.36;99105.59;4484569;32;34731;-56
2021/05/19 10:34:53;;;;;;;1.95;0.75;;;;;;;23.20;42.48;99101.34;4484466;32;33252;-60
2021/05/19 10:37:26;;;;;;;1.15;0.60;;;;;;;23.17;42.57;99112.72;4484304;32;34612;-59
2021/05/19 10:40:06;;;;;;;1.30;0.75;;;;;;;23.16;42.58;99101.00;4476517;32;34618;-58
2021/05/19 10:42:34;;;;;;;2.72;0.70;;;;;;;23.17;42.55;99102.69;4468920;32;33642;-59
2021/05/19 10:45:13;;;;;;;1.15;0.60;;;;;;;23.16;42.56;99095.56;4468534;32;32977;-58
2021/05/19 10:47:42;;;;;;;1.00;0.70;;;;;;;23.16;42.56;99098.28;4468816;32;34255;-59
2021/05/19 10:50:14;;;;;;;1.02;0.50;;;;;;;23.16;42.54;99092.84;4468529;32;33512;-56
2021/05/19 10:58:34;;;;;;;2.08;0.75;;;;;;;23.18;42.51;99081.72;4468455;32;33681;-59
2021/05/19 11:01:05;;;;;;;0.57;0.50;;;;;;;23.16;42.56;99083.84;4468507;32;33822;-58
2021/05/19 11:03:33;;;;;;;1.50;0.70;;;;;;;23.15;42.52;99080.31;4468451;32;33483;-57
2021/05/19 11:06:02;;;;;;;3.22;0.80;;;;;;;23.17;42.51;99080.06;4468342;32;34045;-59
2021/05/19 11:08:31;;;;;;;2.35;0.85;;;;;;;23.16;42.52;99081.97;4468464;32;33708;-59
2021/05/19 11:11:19;;;;;;;1.80;0.60;;;;;;;23.17;42.54;99075.47;4468451;32;34120;-56
2021/05/19 11:14:22;;;;;;;0.93;0.70;;;;;;;23.20;42.46;99068.69;4468359;32;33975;-59
2021/05/19 11:16:58;;;;;;;1.58;0.68;;;;;;;23.19;42.46;99075.22;4468200;32;33431;-59
2021/05/19 11:19:36;;;;;;;2.00;0.70;;;;;;;23.16;42.50;99075.69;4468375;32;34541;-58
2021/05/19 11:22:14;;;;;;;2.53;0.70;;;;;;;23.16;42.50;99076.50;4467343;32;33827;-59
2021/05/19 11:24:57;;;;;;;1.12;0.62;;;;;;;23.16;42.50;99071.06;4468544;32;33775;-59
2021/05/19 11:27:32;;;;;;;1.35;0.80;;;;;;;23.17;42.48;99080.06;4468494;32;33496;-59
2021/05/19 11:30:00;;;;;;;1.35;0.60;;;;;;;23.15;42.51;99069.44;4468371;32;33850;-59
2021/05/19 11:32:29;;;;;;;1.70;0.82;;;;;;;23.15;42.49;99066.69;4481040;32;33943;-59
2021/05/19 11:35:19;;;;;;;1.65;0.75;;;;;;;23.16;42.50;99076.50;4484058;32;34448;-60
2021/05/19 11:38:07;;;;;;;1.08;0.70;;;;;;;23.17;42.46;99078.19;4483791;32;33371;-60
2021/05/19 11:40:42;;;;;;;1.52;0.62;;;;;;;23.16;42.49;99073.78;4483995;32;33521;-57
2021/05/19 11:43:16;;;;;;;2.00;0.73;;;;;;;23.15;42.50;99074.88;4483966;32;34310;-60
2021/05/19 11:45:44;;;;;;;0.50;0.40;;;;;;;23.15;42.49;99071.31;4483929;32;33766;-58
2021/05/19 11:48:24;;;;;;;1.95;0.85;;;;;;;23.15;42.49;99082.22;4483742;32;33026;-60
2021/05/19 11:51:03;;;;;;;1.05;0.50;;;;;;;23.15;42.49;99083.03;4483799;32;33936;-58
2021/05/19 11:53:31;;;;;;;1.45;0.68;;;;;;;23.14;42.48;99086.81;4469552;32;33861;-56
2021/05/19 11:56:00;;;;;;;1.48;0.60;;;;;;;23.14;42.50;99086.81;4482823;32;33527;-58
2021/05/19 11:58:29;;;;;;;1.60;0.70;;;;;;;23.15;42.49;99087.66;4476176;32;34158;-59